Bennett, Colorado
Current Conditions -  °F | °C
As of 8:55 AM on Friday 24 Oct 2014 (Local Time) from KFTG Reporting Station
Broken Clouds Broken Clouds  
Wind Chill: 63°   Ceiling: 15000
Heat Index: 63°   Visibility: 40mi
Dew Point: 28°   Wind: 10mph
Humidity: 27%   Direction: 210°SSW
Pressure: 30.2"   Gusts: NA
Location:  39.76°N, 104.43°W
Report Text: KFTG 241455Z 21009KT 40SM BKN150 17/M02 A3020
Loading
Personal Weather Stations






























Interactive Weather Map
Tropical Storm Tracking
New forecast layout! Learn more

10-Day Weather Forecast

Advertisements
Track Severe Weather on mobile